Barbourville, Kentucky
Current Conditions -  °F | °C
As of 12:53 PM on Thursday 29 Jan 2015 (Local Time) from KLOZ Reporting Station
Clear Clear  
Wind Chill: 54°   Ceiling: Unl
Heat Index: 54°   Visibility: 10mi
Dew Point: 32°   Wind: 17mph
Humidity: 43%   Direction: 230°SW
Pressure: 29.97"   Gusts: 32mph
Location:  36.87°N, 83.89°W
Report Text: KLOZ 291753Z AUTO 23015G28KT 10SM CLR 12/00 A2997 RMK AO2 PK WND 21030/1728 SLP153 60009 T01220000 10122 20050 58022
Loading
Personal Weather Stations






























Interactive Weather Map New forecast layout! Learn more

10-Day Weather Forecast

Advertisements
Track Severe Weather on mobile